Terminal Aerodrome Forecast
Issued by NWS Milwaukee/Sullivan, WI

Home | Current Version | Previous Version | Text Only | Print | Product List | Glossary On
Versions: 1 2 3 4 5 6 7 8 9 10 11 12 13 14 15 16 17 18 19 20 21 22 23
000
FTUS43 KMKX 292320
TAFMKE
TAF
KMKE 292320Z 3000/3106 27009KT P6SM SCT050
     FM300800 26006KT P6SM FEW250
     FM301200 27005KT P6SM FEW050
     FM302000 18007KT P6SM FEW250
     FM302100 15007KT P6SM FEW250
     FM310000 VRB03KT P6SM FEW200=

USA.gov is the U.S. government's official web portal to all federal, state and local government web resources and services.